sensor_id;sensor_type;location;lat;lon;timestamp;pressure;altitude;pressure_sealevel;temperature;humidity
15568;BME280;7885;42.596;23.044;2023-01-28T00:00:56;92146.72;;;1.43;88.97
15568;BME280;7885;42.596;23.044;2023-01-28T00:03:23;92216.41;;;1.85;89.40
15568;BME280;7885;42.596;23.044;2023-01-28T00:05:50;92253.97;;;2.08;90.33
15568;BME280;7885;42.596;23.044;2023-01-28T00:08:18;92255.09;;;2.07;90.16
15568;BME280;7885;42.596;23.044;2023-01-28T00:10:45;92255.88;;;2.08;89.92
15568;BME280;7885;42.596;23.044;2023-01-28T00:13:12;92238.66;;;1.86;89.66
15568;BME280;7885;42.596;23.044;2023-01-28T00:15:40;92250.03;;;2.02;90.26
15568;BME280;7885;42.596;23.044;2023-01-28T00:18:08;92244.13;;;1.93;89.79
15568;BME280;7885;42.596;23.044;2023-01-28T00:20:35;92272.03;;;2.11;89.44
15568;BME280;7885;42.596;23.044;2023-01-28T00:23:02;92250.88;;;2.06;89.52
15568;BME280;7885;42.596;23.044;2023-01-28T00:25:29;92232.56;;;1.89;89.32
15568;BME280;7885;42.596;23.044;2023-01-28T00:27:57;92264.56;;;2.01;89.22
15568;BME280;7885;42.596;23.044;2023-01-28T00:30:23;92266.41;;;1.97;89.31
15568;BME280;7885;42.596;23.044;2023-01-28T00:32:52;92217.53;;;1.62;89.79
15568;BME280;7885;42.596;23.044;2023-01-28T00:35:20;92253.13;;;1.81;90.06
15568;BME280;7885;42.596;23.044;2023-01-28T00:37:47;92266.59;;;1.85;90.39
15568;BME280;7885;42.596;23.044;2023-01-28T00:40:14;92256.97;;;1.84;90.88
15568;BME280;7885;42.596;23.044;2023-01-28T00:42:41;92277.16;;;1.97;90.42
15568;BME280;7885;42.596;23.044;2023-01-28T00:45:08;92275.38;;;2.04;90.19
15568;BME280;7885;42.596;23.044;2023-01-28T00:47:35;92276.56;;;2.07;90.32
15568;BME280;7885;42.596;23.044;2023-01-28T00:50:03;92247.16;;;1.91;90.04
15568;BME280;7885;42.596;23.044;2023-01-28T00:52:32;92258.81;;;1.99;89.88
15568;BME280;7885;42.596;23.044;2023-01-28T00:54:59;92259.66;;;2.03;89.90
15568;BME280;7885;42.596;23.044;2023-01-28T00:57:25;92270.50;;;2.10;90.05
15568;BME280;7885;42.596;23.044;2023-01-28T00:59:52;92267.81;;;2.10;90.12
15568;BME280;7885;42.596;23.044;2023-01-28T01:02:19;92291.38;;;2.20;89.86
15568;BME280;7885;42.596;23.044;2023-01-28T01:04:46;92271.91;;;2.04;89.61
15568;BME280;7885;42.596;23.044;2023-01-28T01:07:21;92289.09;;;2.22;89.96
15568;BME280;7885;42.596;23.044;2023-01-28T01:09:58;92282.88;;;2.18;89.56
15568;BME280;7885;42.596;23.044;2023-01-28T01:12:25;92262.59;;;1.98;89.63
15568;BME280;7885;42.596;23.044;2023-01-28T01:14:52;92264.09;;;1.95;89.56
15568;BME280;7885;42.596;23.044;2023-01-28T01:17:18;92248.66;;;1.89;89.30
15568;BME280;7885;42.596;23.044;2023-01-28T01:19:46;92279.25;;;2.07;89.72
15568;BME280;7885;42.596;23.044;2023-01-28T01:22:13;92284.19;;;2.05;90.16
15568;BME280;7885;42.596;23.044;2023-01-28T01:24:39;92294.78;;;2.17;90.24
15568;BME280;7885;42.596;23.044;2023-01-28T01:27:08;92259.53;;;1.96;90.46
15568;BME280;7885;42.596;23.044;2023-01-28T01:29:34;92281.91;;;2.07;90.62
15568;BME280;7885;42.596;23.044;2023-01-28T01:32:01;92289.81;;;2.19;90.91
15568;BME280;7885;42.596;23.044;2023-01-28T01:34:28;92247.22;;;1.95;90.66
15568;BME280;7885;42.596;23.044;2023-01-28T01:36:55;92272.03;;;2.11;90.63
15568;BME280;7885;42.596;23.044;2023-01-28T01:39:21;92262.78;;;2.09;90.76
15568;BME280;7885;42.596;23.044;2023-01-28T01:41:48;92298.84;;;2.30;90.36
15568;BME280;7885;42.596;23.044;2023-01-28T01:44:53;92294.59;;;2.29;89.97
15568;BME280;7885;42.596;23.044;2023-01-28T01:47:23;92251.88;;;1.98;89.25
15568;BME280;7885;42.596;23.044;2023-01-28T01:49:51;92293.16;;;2.13;89.66
15568;BME280;7885;42.596;23.044;2023-01-28T01:52:22;92283.47;;;2.08;90.78
15568;BME280;7885;42.596;23.044;2023-01-28T01:54:53;92293.63;;;2.18;90.39
15568;BME280;7885;42.596;23.044;2023-01-28T01:57:28;92264.94;;;1.99;90.69
15568;BME280;7885;42.596;23.044;2023-01-28T01:59:57;92291.97;;;2.10;90.28
15568;BME280;7885;42.596;23.044;2023-01-28T02:02:32;92303.97;;;2.16;89.99
15568;BME280;7885;42.596;23.044;2023-01-28T02:05:02;92284.13;;;2.01;90.12
15568;BME280;7885;42.596;23.044;2023-01-28T02:07:29;92307.34;;;2.13;90.36
15568;BME280;7885;42.596;23.044;2023-01-28T02:09:56;92314.13;;;2.07;90.06
15568;BME280;7885;42.596;23.044;2023-01-28T02:12:26;92280.84;;;1.89;90.27
15568;BME280;7885;42.596;23.044;2023-01-28T02:15:01;92264.06;;;1.73;90.79
15568;BME280;7885;42.596;23.044;2023-01-28T02:17:29;92306.78;;;2.04;89.90
15568;BME280;7885;42.596;23.044;2023-01-28T02:19:58;92311.75;;;2.02;90.71
15568;BME280;7885;42.596;23.044;2023-01-28T02:22:50;92306.78;;;2.04;90.66
15568;BME280;7885;42.596;23.044;2023-01-28T02:25:57;92286.56;;;1.87;90.61
15568;BME280;7885;42.596;23.044;2023-01-28T02:28:36;92296.22;;;1.92;90.77
15568;BME280;7885;42.596;23.044;2023-01-28T02:31:10;92310.25;;;2.04;90.58
15568;BME280;7885;42.596;23.044;2023-01-28T02:33:45;92314.06;;;2.03;90.77
15568;BME280;7885;42.596;23.044;2023-01-28T02:36:19;92266.81;;;1.76;90.58
15568;BME280;7885;42.596;23.044;2023-01-28T02:38:49;92310.19;;;2.01;90.41
15568;BME280;7885;42.596;23.044;2023-01-28T02:41:22;92314.72;;;1.97;90.61
15568;BME280;7885;42.596;23.044;2023-01-28T02:43:52;92300.75;;;1.88;90.32
15568;BME280;7885;42.596;23.044;2023-01-28T02:46:21;92304.88;;;1.82;90.86
15568;BME280;7885;42.596;23.044;2023-01-28T02:49:17;92265.78;;;1.62;91.57
15568;BME280;7885;42.596;23.044;2023-01-28T02:52:13;92309.06;;;1.83;91.65
15568;BME280;7885;42.596;23.044;2023-01-28T02:55:12;92304.09;;;1.81;91.66
15568;BME280;7885;42.596;23.044;2023-01-28T02:57:46;92281.16;;;1.65;91.23
15568;BME280;7885;42.596;23.044;2023-01-28T03:00:20;92308.25;;;1.79;91.48
15568;BME280;7885;42.596;23.044;2023-01-28T03:02:52;92318.34;;;1.85;91.77
15568;BME280;7885;42.596;23.044;2023-01-28T03:05:26;92304.41;;;1.80;92.29
15568;BME280;7885;42.596;23.044;2023-01-28T03:07:55;92316.44;;;1.86;91.83
15568;BME280;7885;42.596;23.044;2023-01-28T03:10:25;92305.56;;;1.79;91.94
15568;BME280;7885;42.596;23.044;2023-01-28T03:12:53;92287.94;;;1.59;91.88
15568;BME280;7885;42.596;23.044;2023-01-28T03:15:42;92323.72;;;1.85;93.08
15568;BME280;7885;42.596;23.044;2023-01-28T03:18:32;92331.44;;;1.90;92.70
15568;BME280;7885;42.596;23.044;2023-01-28T03:21:24;92331.03;;;1.88;92.81
15568;BME280;7885;42.596;23.044;2023-01-28T03:24:13;92330.59;;;1.86;92.71
15568;BME280;7885;42.596;23.044;2023-01-28T03:27:03;92294.19;;;1.66;92.88
15568;BME280;7885;42.596;23.044;2023-01-28T03:29:50;92313.56;;;1.75;92.82
15568;BME280;7885;42.596;23.044;2023-01-28T03:32:41;92332.47;;;1.82;92.84
15568;BME280;7885;42.596;23.044;2023-01-28T03:35:29;92332.88;;;1.84;93.11
15568;BME280;7885;42.596;23.044;2023-01-28T03:38:15;92333.59;;;1.81;93.25
15568;BME280;7885;42.596;23.044;2023-01-28T03:40:48;92314.88;;;1.66;93.28
15568;BME280;7885;42.596;23.044;2023-01-28T03:43:15;92331.56;;;1.75;93.72
15568;BME280;7885;42.596;23.044;2023-01-28T03:45:42;92333.03;;;1.72;93.71
15568;BME280;7885;42.596;23.044;2023-01-28T03:48:12;92285.00;;;1.44;93.32
15568;BME280;7885;42.596;23.044;2023-01-28T03:50:40;92325.59;;;1.66;94.18
15568;BME280;7885;42.596;23.044;2023-01-28T03:53:07;92319.56;;;1.69;93.45
15568;BME280;7885;42.596;23.044;2023-01-28T03:55:40;92337.75;;;1.79;94.12
15568;BME280;7885;42.596;23.044;2023-01-28T03:58:07;92324.63;;;1.74;93.75
15568;BME280;7885;42.596;23.044;2023-01-28T04:00:33;92323.44;;;1.71;94.00
15568;BME280;7885;42.596;23.044;2023-01-28T04:03:02;92331.97;;;1.77;94.29
15568;BME280;7885;42.596;23.044;2023-01-28T04:05:30;92340.59;;;1.86;94.24
15568;BME280;7885;42.596;23.044;2023-01-28T04:07:57;92349.03;;;1.88;94.19
15568;BME280;7885;42.596;23.044;2023-01-28T04:10:24;92344.53;;;1.92;93.95
15568;BME280;7885;42.596;23.044;2023-01-28T04:12:50;92289.34;;;1.52;93.81
15568;BME280;7885;42.596;23.044;2023-01-28T04:15:18;92348.69;;;1.89;93.88
15568;BME280;7885;42.596;23.044;2023-01-28T04:17:45;92349.91;;;1.92;93.79
15568;BME280;7885;42.596;23.044;2023-01-28T04:20:13;92335.16;;;1.82;93.63
15568;BME280;7885;42.596;23.044;2023-01-28T04:22:41;92351.09;;;1.94;93.48
15568;BME280;7885;42.596;23.044;2023-01-28T04:25:09;92352.28;;;1.97;93.86
15568;BME280;7885;42.596;23.044;2023-01-28T04:27:35;92363.84;;;2.01;93.15
15568;BME280;7885;42.596;23.044;2023-01-28T04:30:02;92361.53;;;1.99;93.17
15568;BME280;7885;42.596;23.044;2023-01-28T04:32:29;92367.66;;;2.00;93.38
15568;BME280;7885;42.596;23.044;2023-01-28T04:34:56;92373.88;;;2.04;92.98
15568;BME280;7885;42.596;23.044;2023-01-28T04:37:23;92369.22;;;2.01;93.02
15568;BME280;7885;42.596;23.044;2023-01-28T04:39:51;92378.84;;;2.02;93.35
15568;BME280;7885;42.596;23.044;2023-01-28T04:42:17;92376.50;;;2.00;92.78
15568;BME280;7885;42.596;23.044;2023-01-28T04:44:44;92379.97;;;2.01;93.26
15568;BME280;7885;42.596;23.044;2023-01-28T04:47:11;92312.84;;;1.59;92.93
15568;BME280;7885;42.596;23.044;2023-01-28T04:49:37;92381.84;;;2.00;92.99
15568;BME280;7885;42.596;23.044;2023-01-28T04:52:04;92390.69;;;2.01;92.90
15568;BME280;7885;42.596;23.044;2023-01-28T04:54:31;92375.94;;;1.91;92.94
15568;BME280;7885;42.596;23.044;2023-01-28T04:56:59;92359.63;;;1.81;92.74
15568;BME280;7885;42.596;23.044;2023-01-28T04:59:26;92386.09;;;2.01;92.42
15568;BME280;7885;42.596;23.044;2023-01-28T05:01:53;92398.34;;;1.99;92.44
15568;BME280;7885;42.596;23.044;2023-01-28T05:04:19;92392.81;;;1.92;93.13
15568;BME280;7885;42.596;23.044;2023-01-28T05:06:46;92391.34;;;1.94;92.65
15568;BME280;7885;42.596;23.044;2023-01-28T05:09:13;92357.78;;;1.66;93.08
15568;BME280;7885;42.596;23.044;2023-01-28T05:11:39;92358.22;;;1.68;93.29
15568;BME280;7885;42.596;23.044;2023-01-28T05:14:08;92396.00;;;1.97;93.21
15568;BME280;7885;42.596;23.044;2023-01-28T05:16:34;92408.28;;;1.98;92.79
15568;BME280;7885;42.596;23.044;2023-01-28T05:19:02;92408.22;;;1.95;92.74
15568;BME280;7885;42.596;23.044;2023-01-28T05:21:29;92385.75;;;1.84;92.50
15568;BME280;7885;42.596;23.044;2023-01-28T05:23:55;92410.97;;;1.98;92.92
15568;BME280;7885;42.596;23.044;2023-01-28T05:26:22;92419.78;;;1.99;92.55
15568;BME280;7885;42.596;23.044;2023-01-28T05:28:49;92403.19;;;1.93;92.28
15568;BME280;7885;42.596;23.044;2023-01-28T05:31:18;92421.63;;;1.95;91.41
15568;BME280;7885;42.596;23.044;2023-01-28T05:33:44;92416.53;;;1.90;91.16
15568;BME280;7885;42.596;23.044;2023-01-28T05:36:11;92426.44;;;1.86;91.69
15568;BME280;7885;42.596;23.044;2023-01-28T05:38:38;92323.19;;;1.22;92.14
15568;BME280;7885;42.596;23.044;2023-01-28T05:41:04;92438.00;;;1.90;92.02
15568;BME280;7885;42.596;23.044;2023-01-28T05:43:31;92439.28;;;1.96;91.08
15568;BME280;7885;42.596;23.044;2023-01-28T05:45:58;92405.44;;;1.72;91.32
15568;BME280;7885;42.596;23.044;2023-01-28T05:48:26;92407.69;;;1.70;91.42
15568;BME280;7885;42.596;23.044;2023-01-28T05:50:53;92438.00;;;1.90;90.51
15568;BME280;7885;42.596;23.044;2023-01-28T05:53:19;92425.50;;;1.78;90.43
15568;BME280;7885;42.596;23.044;2023-01-28T05:55:47;92445.69;;;1.91;90.07
15568;BME280;7885;42.596;23.044;2023-01-28T05:58:14;92451.84;;;1.92;90.38
15568;BME280;7885;42.596;23.044;2023-01-28T06:00:41;92444.13;;;1.90;91.01
15568;BME280;7885;42.596;23.044;2023-01-28T06:03:07;92449.50;;;1.90;89.85
15568;BME280;7885;42.596;23.044;2023-01-28T06:05:35;92436.16;;;1.75;90.58
15568;BME280;7885;42.596;23.044;2023-01-28T06:08:03;92443.50;;;1.78;90.18
15568;BME280;7885;42.596;23.044;2023-01-28T06:10:30;92447.03;;;1.82;89.31
15568;BME280;7885;42.596;23.044;2023-01-28T06:12:57;92457.75;;;1.82;89.52
15568;BME280;7885;42.596;23.044;2023-01-28T06:15:23;92455.41;;;1.80;89.46
15568;BME280;7885;42.596;23.044;2023-01-28T06:17:50;92460.28;;;1.75;89.18
15568;BME280;7885;42.596;23.044;2023-01-28T06:20:17;92457.31;;;1.61;88.87
15568;BME280;7885;42.596;23.044;2023-01-28T06:22:45;92469.16;;;1.60;89.31
15568;BME280;7885;42.596;23.044;2023-01-28T06:25:12;92484.97;;;1.65;89.95
15568;BME280;7885;42.596;23.044;2023-01-28T06:27:39;92482.00;;;1.70;89.44
15568;BME280;7885;42.596;23.044;2023-01-28T06:30:07;92411.75;;;1.10;89.24
15568;BME280;7885;42.596;23.044;2023-01-28T06:32:34;92490.34;;;1.65;90.19
15568;BME280;7885;42.596;23.044;2023-01-28T06:35:01;92489.63;;;1.68;90.46
15568;BME280;7885;42.596;23.044;2023-01-28T06:37:27;92491.88;;;1.66;89.40
15568;BME280;7885;42.596;23.044;2023-01-28T06:39:55;92496.16;;;1.51;89.56
15568;BME280;7885;42.596;23.044;2023-01-28T06:42:22;92500.22;;;1.61;90.43
15568;BME280;7885;42.596;23.044;2023-01-28T06:44:49;92499.91;;;1.66;90.24
15568;BME280;7885;42.596;23.044;2023-01-28T06:47:16;92498.72;;;1.63;89.68
15568;BME280;7885;42.596;23.044;2023-01-28T06:49:42;92515.06;;;1.74;90.06
15568;BME280;7885;42.596;23.044;2023-01-28T06:52:09;92507.47;;;1.76;89.91
15568;BME280;7885;42.596;23.044;2023-01-28T06:54:36;92515.06;;;1.74;89.19
15568;BME280;7885;42.596;23.044;2023-01-28T06:57:04;92514.28;;;1.73;89.29
15568;BME280;7885;42.596;23.044;2023-01-28T06:59:31;92530.63;;;1.84;88.84
15568;BME280;7885;42.596;23.044;2023-01-28T07:01:57;92520.91;;;1.79;89.11
15568;BME280;7885;42.596;23.044;2023-01-28T07:04:24;92512.66;;;1.69;88.96
15568;BME280;7885;42.596;23.044;2023-01-28T07:06:51;92529.66;;;1.76;89.11
15568;BME280;7885;42.596;23.044;2023-01-28T07:09:18;92537.38;;;1.78;89.21
15568;BME280;7885;42.596;23.044;2023-01-28T07:11:45;92532.56;;;1.68;88.66
15568;BME280;7885;42.596;23.044;2023-01-28T07:14:13;92541.03;;;1.70;89.25
15568;BME280;7885;42.596;23.044;2023-01-28T07:16:40;92540.22;;;1.69;89.52
15568;BME280;7885;42.596;23.044;2023-01-28T07:19:07;92542.50;;;1.67;89.96
15568;BME280;7885;42.596;23.044;2023-01-28T07:21:33;92515.00;;;1.55;89.19
15568;BME280;7885;42.596;23.044;2023-01-28T07:24:00;92540.22;;;1.69;89.68
15568;BME280;7885;42.596;23.044;2023-01-28T07:26:29;92539.19;;;1.74;89.17
15568;BME280;7885;42.596;23.044;2023-01-28T07:28:56;92544.94;;;1.57;89.88
15568;BME280;7885;42.596;23.044;2023-01-28T07:31:24;92556.69;;;1.68;89.80
15568;BME280;7885;42.596;23.044;2023-01-28T07:33:51;92545.50;;;1.66;89.27
15568;BME280;7885;42.596;23.044;2023-01-28T07:36:18;92559.72;;;1.66;89.33
15568;BME280;7885;42.596;23.044;2023-01-28T07:38:45;92533.25;;;1.49;89.78
15568;BME280;7885;42.596;23.044;2023-01-28T07:41:12;92557.81;;;1.67;89.23
15568;BME280;7885;42.596;23.044;2023-01-28T07:43:38;92524.88;;;1.50;89.22
15568;BME280;7885;42.596;23.044;2023-01-28T07:46:05;92553.84;;;1.61;89.57
15568;BME280;7885;42.596;23.044;2023-01-28T07:48:34;92544.84;;;1.69;89.43
15568;BME280;7885;42.596;23.044;2023-01-28T07:51:01;92529.94;;;1.56;88.71
15568;BME280;7885;42.596;23.044;2023-01-28T07:53:28;92556.56;;;1.80;89.05
15568;BME280;7885;42.596;23.044;2023-01-28T07:55:58;92584.59;;;1.98;88.50
15568;BME280;7885;42.596;23.044;2023-01-28T07:58:25;92576.97;;;2.00;88.38
15568;BME280;7885;42.596;23.044;2023-01-28T08:00:55;92573.16;;;2.01;87.67
15568;BME280;7885;42.596;23.044;2023-01-28T08:03:22;92564.69;;;1.99;88.13
15568;BME280;7885;42.596;23.044;2023-01-28T08:05:51;92591.16;;;2.16;87.44
15568;BME280;7885;42.596;23.044;2023-01-28T08:08:19;92588.88;;;2.18;87.68
15568;BME280;7885;42.596;23.044;2023-01-28T08:10:47;92515.91;;;1.78;86.94
15568;BME280;7885;42.596;23.044;2023-01-28T08:13:15;92596.91;;;2.34;86.92
15568;BME280;7885;42.596;23.044;2023-01-28T08:15:43;92593.94;;;2.39;87.29
15568;BME280;7885;42.596;23.044;2023-01-28T08:18:11;92600.66;;;2.48;87.17
15568;BME280;7885;42.596;23.044;2023-01-28T08:20:39;92594.09;;;2.46;86.02
15568;BME280;7885;42.596;23.044;2023-01-28T08:23:11;92606.63;;;2.58;85.86
15568;BME280;7885;42.596;23.044;2023-01-28T08:25:38;92603.22;;;2.61;86.23
15568;BME280;7885;42.596;23.044;2023-01-28T08:28:14;92603.81;;;2.70;85.71
15568;BME280;7885;42.596;23.044;2023-01-28T08:30:43;92613.28;;;2.64;84.95
15568;BME280;7885;42.596;23.044;2023-01-28T08:33:12;92551.91;;;2.27;84.58
15568;BME280;7885;42.596;23.044;2023-01-28T08:35:39;92622.25;;;2.71;84.85
15568;BME280;7885;42.596;23.044;2023-01-28T08:38:09;92615.41;;;2.74;84.67
15568;BME280;7885;42.596;23.044;2023-01-28T08:40:36;92546.25;;;2.32;84.43
15568;BME280;7885;42.596;23.044;2023-01-28T08:43:03;92630.81;;;2.77;84.40
15568;BME280;7885;42.596;23.044;2023-01-28T08:45:46;92620.50;;;2.79;84.34
15568;BME280;7885;42.596;23.044;2023-01-28T08:48:15;92618.53;;;2.76;84.50
15568;BME280;7885;42.596;23.044;2023-01-28T08:50:42;92578.06;;;2.49;84.95
15568;BME280;7885;42.596;23.044;2023-01-28T08:53:12;92560.38;;;2.48;84.96
15568;BME280;7885;42.596;23.044;2023-01-28T08:55:40;92625.03;;;2.94;85.43
15568;BME280;7885;42.596;23.044;2023-01-28T08:58:10;92497.63;;;2.18;84.19
15568;BME280;7885;42.596;23.044;2023-01-28T09:00:37;92502.28;;;2.21;84.21
15568;BME280;7885;42.596;23.044;2023-01-28T09:03:05;92626.88;;;3.09;84.36
15568;BME280;7885;42.596;23.044;2023-01-28T09:05:35;92602.47;;;2.98;84.75
15568;BME280;7885;42.596;23.044;2023-01-28T09:08:03;92490.22;;;2.31;83.26
15568;BME280;7885;42.596;23.044;2023-01-28T09:10:32;92535.38;;;2.64;82.72
15568;BME280;7885;42.596;23.044;2023-01-28T09:13:04;92629.84;;;3.23;83.30
15568;BME280;7885;42.596;23.044;2023-01-28T09:15:31;92595.31;;;3.06;83.88
15568;BME280;7885;42.596;23.044;2023-01-28T09:17:58;92551.41;;;2.79;83.17
15568;BME280;7885;42.596;23.044;2023-01-28T09:20:25;92602.22;;;3.26;82.92
15568;BME280;7885;42.596;23.044;2023-01-28T09:22:53;92567.84;;;3.16;82.85
15568;BME280;7885;42.596;23.044;2023-01-28T09:25:20;92617.19;;;3.46;83.10
15568;BME280;7885;42.596;23.044;2023-01-28T09:27:48;92608.47;;;3.53;83.34
15568;BME280;7885;42.596;23.044;2023-01-28T09:30:15;92617.13;;;3.66;82.82
15568;BME280;7885;42.596;23.044;2023-01-28T09:32:43;92503.81;;;2.99;82.25
15568;BME280;7885;42.596;23.044;2023-01-28T09:35:10;92599.47;;;3.65;81.85
15568;BME280;7885;42.596;23.044;2023-01-28T09:37:37;92571.25;;;3.55;82.12
15568;BME280;7885;42.596;23.044;2023-01-28T09:40:05;92539.78;;;3.36;82.30
15568;BME280;7885;42.596;23.044;2023-01-28T09:42:58;92549.41;;;3.60;81.84
15568;BME280;7885;42.596;23.044;2023-01-28T09:45:36;92597.59;;;3.91;81.62
15568;BME280;7885;42.596;23.044;2023-01-28T09:48:09;92592.25;;;3.95;80.78
15568;BME280;7885;42.596;23.044;2023-01-28T09:50:39;92546.06;;;3.67;80.65
15568;BME280;7885;42.596;23.044;2023-01-28T09:53:11;92565.06;;;3.77;80.08
15568;BME280;7885;42.596;23.044;2023-01-28T09:55:41;92590.94;;;4.08;80.75
15568;BME280;7885;42.596;23.044;2023-01-28T09:58:13;92549.47;;;3.90;80.60
15568;BME280;7885;42.596;23.044;2023-01-28T10:00:49;92611.06;;;4.18;80.22
15568;BME280;7885;42.596;23.044;2023-01-28T10:03:40;92618.91;;;4.26;80.03
15568;BME280;7885;42.596;23.044;2023-01-28T10:06:25;92612.44;;;4.31;79.96
15568;BME280;7885;42.596;23.044;2023-01-28T10:09:20;92490.88;;;3.53;79.95
15568;BME280;7885;42.596;23.044;2023-01-28T10:12:02;92560.19;;;4.09;80.44
15568;BME280;7885;42.596;23.044;2023-01-28T10:14:43;92546.50;;;4.21;80.27
15568;BME280;7885;42.596;23.044;2023-01-28T10:17:20;92567.09;;;4.36;79.57
15568;BME280;7885;42.596;23.044;2023-01-28T10:19:50;92573.09;;;4.52;79.09
15568;BME280;7885;42.596;23.044;2023-01-28T10:22:22;92562.75;;;4.28;79.19
15568;BME280;7885;42.596;23.044;2023-01-28T10:24:54;92531.59;;;4.01;79.32
15568;BME280;7885;42.596;23.044;2023-01-28T10:27:28;92568.13;;;4.28;79.13
15568;BME280;7885;42.596;23.044;2023-01-28T10:29:59;92583.03;;;4.48;79.25
15568;BME280;7885;42.596;23.044;2023-01-28T10:32:37;92607.19;;;4.68;78.93
15568;BME280;7885;42.596;23.044;2023-01-28T10:35:10;92611.84;;;4.71;78.95
15568;BME280;7885;42.596;23.044;2023-01-28T10:37:44;92541.94;;;4.25;79.47
15568;BME280;7885;42.596;23.044;2023-01-28T10:40:20;92546.13;;;4.23;79.10
15568;BME280;7885;42.596;23.044;2023-01-28T10:42:57;92556.53;;;4.24;79.03
15568;BME280;7885;42.596;23.044;2023-01-28T10:45:35;92486.56;;;3.72;79.65
15568;BME280;7885;42.596;23.044;2023-01-28T10:48:15;92520.50;;;4.06;79.99
15568;BME280;7885;42.596;23.044;2023-01-28T10:50:49;92570.53;;;4.33;79.96
15568;BME280;7885;42.596;23.044;2023-01-28T10:53:17;92617.91;;;4.64;80.49
15568;BME280;7885;42.596;23.044;2023-01-28T10:55:49;92475.75;;;3.68;79.12
15568;BME280;7885;42.596;23.044;2023-01-28T10:58:19;92459.44;;;3.58;79.32
15568;BME280;7885;42.596;23.044;2023-01-28T11:00:53;92610.19;;;4.63;79.58
15568;BME280;7885;42.596;23.044;2023-01-28T11:03:25;92607.13;;;4.64;79.03
15568;BME280;7885;42.596;23.044;2023-01-28T11:05:55;92565.78;;;4.23;78.54
15568;BME280;7885;42.596;23.044;2023-01-28T11:08:24;92542.63;;;4.19;79.42
15568;BME280;7885;42.596;23.044;2023-01-28T11:10:52;92607.81;;;4.57;79.34
15568;BME280;7885;42.596;23.044;2023-01-28T11:13:21;92559.22;;;4.24;78.92
15568;BME280;7885;42.596;23.044;2023-01-28T11:15:49;92527.72;;;3.98;79.27
15568;BME280;7885;42.596;23.044;2023-01-28T11:18:24;92611.66;;;4.56;79.45
15568;BME280;7885;42.596;23.044;2023-01-28T11:20:54;92609.06;;;4.64;79.13
15568;BME280;7885;42.596;23.044;2023-01-28T11:23:27;92517.94;;;4.13;78.60
15568;BME280;7885;42.596;23.044;2023-01-28T11:26:00;92603.41;;;4.72;78.63
15568;BME280;7885;42.596;23.044;2023-01-28T11:28:29;92609.44;;;4.66;78.23
15568;BME280;7885;42.596;23.044;2023-01-28T11:30:58;92538.00;;;4.19;78.08
15568;BME280;7885;42.596;23.044;2023-01-28T11:33:31;92516.31;;;4.08;78.67
15568;BME280;7885;42.596;23.044;2023-01-28T11:36:07;92599.31;;;4.55;78.43
15568;BME280;7885;42.596;23.044;2023-01-28T11:38:34;92587.69;;;4.48;78.43
15568;BME280;7885;42.596;23.044;2023-01-28T11:41:01;92514.16;;;3.91;78.81
15568;BME280;7885;42.596;23.044;2023-01-28T11:43:29;92586.69;;;4.33;79.41
15568;BME280;7885;42.596;23.044;2023-01-28T11:46:05;92547.50;;;4.10;79.71
15568;BME280;7885;42.596;23.044;2023-01-28T11:48:48;92470.03;;;3.47;80.34
15568;BME280;7885;42.596;23.044;2023-01-28T11:51:27;92461.53;;;3.45;79.79
15568;BME280;7885;42.596;23.044;2023-01-28T11:54:06;92601.19;;;4.25;80.33
15568;BME280;7885;42.596;23.044;2023-01-28T11:56:48;92598.75;;;4.17;80.13
15568;BME280;7885;42.596;23.044;2023-01-28T11:59:41;92595.19;;;4.09;80.62
15568;BME280;7885;42.596;23.044;2023-01-28T12:05:33;92602.31;;;3.98;80.80
15568;BME280;7885;42.596;23.044;2023-01-28T12:08:09;92562.69;;;3.72;81.03
15568;BME280;7885;42.596;23.044;2023-01-28T12:10:51;92483.38;;;3.17;80.54
15568;BME280;7885;42.596;23.044;2023-01-28T12:13:32;92573.91;;;3.78;81.17
15568;BME280;7885;42.596;23.044;2023-01-28T12:16:22;92581.38;;;3.88;81.20
15568;BME280;7885;42.596;23.044;2023-01-28T12:19:08;92579.81;;;3.87;81.29
15568;BME280;7885;42.596;23.044;2023-01-28T12:21:56;92598.59;;;4.06;81.52
15568;BME280;7885;42.596;23.044;2023-01-28T12:24:41;92455.06;;;3.23;81.28
15568;BME280;7885;42.596;23.044;2023-01-28T12:27:25;92559.19;;;3.94;81.55
15568;BME280;7885;42.596;23.044;2023-01-28T12:30:02;92527.44;;;3.81;80.77
15568;BME280;7885;42.596;23.044;2023-01-28T12:32:45;92601.66;;;4.31;79.81
15568;BME280;7885;42.596;23.044;2023-01-28T12:35:27;92474.69;;;3.50;79.84
15568;BME280;7885;42.596;23.044;2023-01-28T12:38:06;92530.44;;;3.76;79.89
15568;BME280;7885;42.596;23.044;2023-01-28T12:40:56;92558.81;;;3.96;80.06
15568;BME280;7885;42.596;23.044;2023-01-28T12:43:37;92578.06;;;3.98;80.81
15568;BME280;7885;42.596;23.044;2023-01-28T12:46:22;92486.78;;;3.37;79.96
15568;BME280;7885;42.596;23.044;2023-01-28T12:48:58;92613.03;;;4.21;81.08
15568;BME280;7885;42.596;23.044;2023-01-28T12:51:29;92577.91;;;3.87;80.32
15568;BME280;7885;42.596;23.044;2023-01-28T12:54:03;92631.03;;;4.13;80.64
15568;BME280;7885;42.596;23.044;2023-01-28T12:56:34;92622.09;;;4.09;80.48
15568;BME280;7885;42.596;23.044;2023-01-28T12:59:05;92471.66;;;3.06;80.54
15568;BME280;7885;42.596;23.044;2023-01-28T13:01:40;92584.03;;;3.62;80.74
15568;BME280;7885;42.596;23.044;2023-01-28T13:04:14;92598.91;;;3.78;81.75
15568;BME280;7885;42.596;23.044;2023-01-28T13:06:46;92546.00;;;3.40;81.84
15568;BME280;7885;42.596;23.044;2023-01-28T13:09:22;92630.78;;;3.99;81.81
15568;BME280;7885;42.596;23.044;2023-01-28T13:11:52;92648.00;;;3.94;81.84
15568;BME280;7885;42.596;23.044;2023-01-28T13:14:24;92649.50;;;3.92;82.42
15568;BME280;7885;42.596;23.044;2023-01-28T13:16:53;92645.69;;;3.93;82.57
15568;BME280;7885;42.596;23.044;2023-01-28T13:19:23;92586.03;;;3.45;81.90
15568;BME280;7885;42.596;23.044;2023-01-28T13:21:51;92605.44;;;3.54;81.56
15568;BME280;7885;42.596;23.044;2023-01-28T13:24:23;92601.47;;;3.48;82.71
15568;BME280;7885;42.596;23.044;2023-01-28T13:26:57;92601.16;;;3.31;83.12
15568;BME280;7885;42.596;23.044;2023-01-28T13:29:29;92653.75;;;3.70;83.38
15568;BME280;7885;42.596;23.044;2023-01-28T13:31:57;92603.22;;;3.37;83.03
15568;BME280;7885;42.596;23.044;2023-01-28T13:34:31;92665.81;;;3.80;83.35